sensor_id;sensor_type;location;lat;lon;timestamp;pressure;altitude;pressure_sealevel;temperature;humidity
30110;BME280;14965;50.660;13.226;2023-03-15T00:01:32;94088.75;;;0.35;100.00
30110;BME280;14965;50.660;13.226;2023-03-15T00:03:58;94081.41;;;0.32;100.00
30110;BME280;14965;50.660;13.226;2023-03-15T00:06:24;94086.06;;;0.31;100.00
30110;BME280;14965;50.660;13.226;2023-03-15T00:08:51;94087.63;;;0.21;100.00
30110;BME280;14965;50.660;13.226;2023-03-15T00:11:18;94095.38;;;0.19;100.00
30110;BME280;14965;50.660;13.226;2023-03-15T00:13:45;94096.94;;;0.20;100.00
30110;BME280;14965;50.660;13.226;2023-03-15T00:16:12;94094.22;;;0.20;100.00
30110;BME280;14965;50.660;13.226;2023-03-15T00:18:38;94106.66;;;0.18;100.00
30110;BME280;14965;50.660;13.226;2023-03-15T00:21:04;94107.41;;;0.18;100.00
30110;BME280;14965;50.660;13.226;2023-03-15T00:23:30;94103.53;;;0.16;100.00
30110;BME280;14965;50.660;13.226;2023-03-15T00:25:57;94112.84;;;0.11;100.00
30110;BME280;14965;50.660;13.226;2023-03-15T00:28:23;94113.63;;;0.08;100.00
30110;BME280;14965;50.660;13.226;2023-03-15T00:30:49;94112.47;;;0.06;100.00
30110;BME280;14965;50.660;13.226;2023-03-15T00:33:16;94115.19;;;0.02;100.00
30110;BME280;14965;50.660;13.226;2023-03-15T00:35:44;94115.19;;;-0.02;100.00
30110;BME280;14965;50.660;13.226;2023-03-15T00:38:11;94124.50;;;-0.03;100.00
30110;BME280;14965;50.660;13.226;2023-03-15T00:40:37;94124.91;;;-0.04;100.00
30110;BME280;14965;50.660;13.226;2023-03-15T00:43:05;94125.66;;;-0.07;100.00
30110;BME280;14965;50.660;13.226;2023-03-15T00:45:31;94124.91;;;-0.04;100.00
30110;BME280;14965;50.660;13.226;2023-03-15T00:47:57;94122.97;;;0.00;100.00
30110;BME280;14965;50.660;13.226;2023-03-15T00:50:23;94121.03;;;0.01;100.00
30110;BME280;14965;50.660;13.226;2023-03-15T00:52:50;94121.78;;;0.05;100.00
30110;BME280;14965;50.660;13.226;2023-03-15T00:55:18;94130.31;;;0.07;100.00
30110;BME280;14965;50.660;13.226;2023-03-15T00:57:45;94126.06;;;0.09;100.00
30110;BME280;14965;50.660;13.226;2023-03-15T01:00:17;94136.91;;;0.09;100.00
30110;BME280;14965;50.660;13.226;2023-03-15T01:02:44;94140.75;;;0.08;100.00
30110;BME280;14965;50.660;13.226;2023-03-15T01:05:12;94127.22;;;0.05;100.00
30110;BME280;14965;50.660;13.226;2023-03-15T01:07:38;94137.31;;;0.01;100.00
30110;BME280;14965;50.660;13.226;2023-03-15T01:10:06;94134.59;;;-0.03;99.83
30110;BME280;14965;50.660;13.226;2023-03-15T01:12:33;94140.78;;;-0.06;100.00
30110;BME280;14965;50.660;13.226;2023-03-15T01:15:01;94145.44;;;-0.10;100.00
30110;BME280;14965;50.660;13.226;2023-03-15T01:17:30;94148.16;;;-0.10;100.00
30110;BME280;14965;50.660;13.226;2023-03-15T01:19:57;94145.44;;;-0.14;99.92
30110;BME280;14965;50.660;13.226;2023-03-15T01:22:26;94165.59;;;-0.15;99.83
30110;BME280;14965;50.660;13.226;2023-03-15T01:24:52;94155.91;;;-0.19;100.00
30110;BME280;14965;50.660;13.226;2023-03-15T01:27:18;94163.28;;;-0.20;99.78
30110;BME280;14965;50.660;13.226;2023-03-15T01:29:44;94152.41;;;-0.23;99.88
30110;BME280;14965;50.660;13.226;2023-03-15T01:32:13;94157.84;;;-0.23;99.93
30110;BME280;14965;50.660;13.226;2023-03-15T01:34:45;94163.28;;;-0.23;99.87
30110;BME280;14965;50.660;13.226;2023-03-15T01:37:11;94159.00;;;-0.24;100.00
30110;BME280;14965;50.660;13.226;2023-03-15T01:39:37;94155.13;;;-0.23;99.88
30110;BME280;14965;50.660;13.226;2023-03-15T01:42:06;94163.66;;;-0.21;100.00
30110;BME280;14965;50.660;13.226;2023-03-15T01:44:52;94168.69;;;-0.23;100.00
30110;BME280;14965;50.660;13.226;2023-03-15T01:47:20;94172.19;;;-0.23;99.65
30110;BME280;14965;50.660;13.226;2023-03-15T01:49:55;94170.25;;;-0.22;100.00
30110;BME280;14965;50.660;13.226;2023-03-15T01:52:28;94163.66;;;-0.21;99.83
30110;BME280;14965;50.660;13.226;2023-03-15T01:54:59;94172.97;;;-0.22;99.78
30110;BME280;14965;50.660;13.226;2023-03-15T01:57:30;94176.06;;;-0.24;100.00
30110;BME280;14965;50.660;13.226;2023-03-15T02:00:03;94174.91;;;-0.23;99.62
30110;BME280;14965;50.660;13.226;2023-03-15T02:02:31;94177.22;;;-0.25;99.76
30110;BME280;14965;50.660;13.226;2023-03-15T02:05:38;94182.25;;;-0.23;99.68
30110;BME280;14965;50.660;13.226;2023-03-15T02:08:08;94181.84;;;-0.26;99.40
30110;BME280;14965;50.660;13.226;2023-03-15T02:10:39;94177.59;;;-0.27;98.94
30110;BME280;14965;50.660;13.226;2023-03-15T02:13:08;94174.88;;;-0.27;98.93
30110;BME280;14965;50.660;13.226;2023-03-15T02:15:34;94184.19;;;-0.28;99.13
30110;BME280;14965;50.660;13.226;2023-03-15T02:18:00;94183.03;;;-0.27;98.81
30110;BME280;14965;50.660;13.226;2023-03-15T02:20:34;94186.13;;;-0.28;98.79
30110;BME280;14965;50.660;13.226;2023-03-15T02:23:07;94184.19;;;-0.28;98.77
30110;BME280;14965;50.660;13.226;2023-03-15T02:25:44;94183.03;;;-0.27;98.93
30110;BME280;14965;50.660;13.226;2023-03-15T02:28:18;94176.81;;;-0.31;98.68
30110;BME280;14965;50.660;13.226;2023-03-15T02:30:48;94167.91;;;-0.31;99.06
30110;BME280;14965;50.660;13.226;2023-03-15T02:33:21;94173.34;;;-0.31;98.64
30110;BME280;14965;50.660;13.226;2023-03-15T02:35:49;94181.09;;;-0.33;98.70
30110;BME280;14965;50.660;13.226;2023-03-15T02:38:18;94186.50;;;-0.37;98.75
30110;BME280;14965;50.660;13.226;2023-03-15T02:40:48;94194.63;;;-0.44;98.38
30110;BME280;14965;50.660;13.226;2023-03-15T02:43:23;94211.28;;;-0.49;98.24
30110;BME280;14965;50.660;13.226;2023-03-15T02:45:50;94213.56;;;-0.55;97.78
30110;BME280;14965;50.660;13.226;2023-03-15T02:48:17;94208.53;;;-0.56;98.60
30110;BME280;14965;50.660;13.226;2023-03-15T02:50:43;94204.31;;;-0.54;98.71
30110;BME280;14965;50.660;13.226;2023-03-15T02:53:10;94206.63;;;-0.52;98.79
30110;BME280;14965;50.660;13.226;2023-03-15T02:55:36;94207.78;;;-0.53;98.77
30110;BME280;14965;50.660;13.226;2023-03-15T02:58:02;94214.38;;;-0.54;98.75
30110;BME280;14965;50.660;13.226;2023-03-15T03:00:29;94213.97;;;-0.56;98.76
30110;BME280;14965;50.660;13.226;2023-03-15T03:02:58;94217.44;;;-0.56;98.96
30110;BME280;14965;50.660;13.226;2023-03-15T03:05:24;94222.47;;;-0.61;98.65
30110;BME280;14965;50.660;13.226;2023-03-15T03:07:50;94228.28;;;-0.59;98.84
30110;BME280;14965;50.660;13.226;2023-03-15T03:10:18;94237.19;;;-0.59;98.83
30110;BME280;14965;50.660;13.226;2023-03-15T03:12:45;94233.72;;;-0.59;98.96
30110;BME280;14965;50.660;13.226;2023-03-15T03:15:11;94249.97;;;-0.59;98.94
30110;BME280;14965;50.660;13.226;2023-03-15T03:17:38;94243.78;;;-0.60;98.62
30110;BME280;14965;50.660;13.226;2023-03-15T03:20:07;94249.22;;;-0.60;98.63
30110;BME280;14965;50.660;13.226;2023-03-15T03:22:33;94244.56;;;-0.59;98.57
30110;BME280;14965;50.660;13.226;2023-03-15T03:24:59;94254.28;;;-0.58;98.65
30110;BME280;14965;50.660;13.226;2023-03-15T03:27:25;94258.13;;;-0.59;98.45
30110;BME280;14965;50.660;13.226;2023-03-15T03:29:51;94257.72;;;-0.61;98.11
30110;BME280;14965;50.660;13.226;2023-03-15T03:32:17;94257.72;;;-0.61;97.69
30110;BME280;14965;50.660;13.226;2023-03-15T03:34:45;94259.25;;;-0.67;97.53
30110;BME280;14965;50.660;13.226;2023-03-15T03:37:11;94263.09;;;-0.72;97.46
30110;BME280;14965;50.660;13.226;2023-03-15T03:39:37;94272.41;;;-0.73;97.14
30110;BME280;14965;50.660;13.226;2023-03-15T03:42:03;94272.78;;;-0.74;97.37
30110;BME280;14965;50.660;13.226;2023-03-15T03:44:29;94278.97;;;-0.78;97.17
30110;BME280;14965;50.660;13.226;2023-03-15T03:46:55;94280.50;;;-0.80;97.19
30110;BME280;14965;50.660;13.226;2023-03-15T03:49:21;94280.88;;;-0.82;96.92
30110;BME280;14965;50.660;13.226;2023-03-15T03:51:52;94285.50;;;-0.86;96.88
30110;BME280;14965;50.660;13.226;2023-03-15T03:54:18;94284.31;;;-0.92;96.75
30110;BME280;14965;50.660;13.226;2023-03-15T03:56:44;94283.91;;;-0.94;97.04
30110;BME280;14965;50.660;13.226;2023-03-15T03:59:10;94289.69;;;-0.99;96.93
30110;BME280;14965;50.660;13.226;2023-03-15T04:01:36;94297.81;;;-1.03;96.78
30110;BME280;14965;50.660;13.226;2023-03-15T04:04:02;94306.66;;;-1.09;96.93
30110;BME280;14965;50.660;13.226;2023-03-15T04:06:28;94309.72;;;-1.14;96.82
30110;BME280;14965;50.660;13.226;2023-03-15T04:08:56;94308.16;;;-1.19;96.90
30110;BME280;14965;50.660;13.226;2023-03-15T04:11:22;94311.56;;;-1.26;96.88
30110;BME280;14965;50.660;13.226;2023-03-15T04:13:48;94319.31;;;-1.28;96.99
30110;BME280;14965;50.660;13.226;2023-03-15T04:16:14;94317.34;;;-1.31;96.72
30110;BME280;14965;50.660;13.226;2023-03-15T04:18:40;94325.47;;;-1.31;96.74
30110;BME280;14965;50.660;13.226;2023-03-15T04:21:06;94332.44;;;-1.33;96.84
30110;BME280;14965;50.660;13.226;2023-03-15T04:23:32;94347.91;;;-1.34;96.89
30110;BME280;14965;50.660;13.226;2023-03-15T04:29:46;94364.47;;;-1.42;97.36
30110;BME280;14965;50.660;13.226;2023-03-15T04:32:12;94360.59;;;-1.45;97.38
30110;BME280;14965;50.660;13.226;2023-03-15T04:34:38;94362.88;;;-1.47;97.61
30110;BME280;14965;50.660;13.226;2023-03-15T04:37:05;94363.66;;;-1.46;97.62
30110;BME280;14965;50.660;13.226;2023-03-15T04:39:31;94369.88;;;-1.46;97.75
30110;BME280;14965;50.660;13.226;2023-03-15T04:41:57;94374.91;;;-1.44;97.72
30110;BME280;14965;50.660;13.226;2023-03-15T04:44:23;94372.53;;;-1.49;97.60
30110;BME280;14965;50.660;13.226;2023-03-15T04:46:51;94367.91;;;-1.49;97.50
30110;BME280;14965;50.660;13.226;2023-03-15T04:49:17;94371.78;;;-1.46;97.58
30110;BME280;14965;50.660;13.226;2023-03-15T04:51:43;94374.09;;;-1.48;97.68
30110;BME280;14965;50.660;13.226;2023-03-15T04:54:11;94376.81;;;-1.48;97.37
30110;BME280;14965;50.660;13.226;2023-03-15T04:56:40;94383.38;;;-1.49;97.25
30110;BME280;14965;50.660;13.226;2023-03-15T04:59:06;94386.44;;;-1.51;97.07
30110;BME280;14965;50.660;13.226;2023-03-15T05:01:32;94393.41;;;-1.54;97.16
30110;BME280;14965;50.660;13.226;2023-03-15T05:03:59;94399.16;;;-1.55;96.94
30110;BME280;14965;50.660;13.226;2023-03-15T05:06:28;94398.00;;;-1.58;96.84
30110;BME280;14965;50.660;13.226;2023-03-15T05:08:57;94398.34;;;-1.59;97.20
30110;BME280;14965;50.660;13.226;2023-03-15T05:11:23;94401.81;;;-1.62;97.08
30110;BME280;14965;50.660;13.226;2023-03-15T05:13:49;94408.00;;;-1.62;97.13
30110;BME280;14965;50.660;13.226;2023-03-15T05:16:18;94413.44;;;-1.62;97.00
30110;BME280;14965;50.660;13.226;2023-03-15T05:18:44;94411.41;;;-1.68;96.72
30110;BME280;14965;50.660;13.226;2023-03-15T05:21:19;94404.84;;;-1.67;96.89
30110;BME280;14965;50.660;13.226;2023-03-15T05:23:45;94412.97;;;-1.67;96.88
30110;BME280;14965;50.660;13.226;2023-03-15T05:26:11;94426.50;;;-1.67;96.81
30110;BME280;14965;50.660;13.226;2023-03-15T05:28:39;94421.44;;;-1.72;97.11
30110;BME280;14965;50.660;13.226;2023-03-15T05:31:12;94429.59;;;-1.69;96.79
30110;BME280;14965;50.660;13.226;2023-03-15T05:33:40;94433.81;;;-1.71;97.12
30110;BME280;14965;50.660;13.226;2023-03-15T05:36:09;94438.88;;;-1.70;96.89
30110;BME280;14965;50.660;13.226;2023-03-15T05:38:36;94445.84;;;-1.69;96.80
30110;BME280;14965;50.660;13.226;2023-03-15T05:41:03;94447.44;;;-1.64;97.12
30110;BME280;14965;50.660;13.226;2023-03-15T05:43:31;94457.91;;;-1.63;97.11
30110;BME280;14965;50.660;13.226;2023-03-15T05:45:59;94462.16;;;-1.62;96.71
30110;BME280;14965;50.660;13.226;2023-03-15T05:48:35;94465.66;;;-1.61;96.95
30110;BME280;14965;50.660;13.226;2023-03-15T05:51:04;94462.59;;;-1.56;97.03
30110;BME280;14965;50.660;13.226;2023-03-15T05:53:34;94470.38;;;-1.51;96.69
30110;BME280;14965;50.660;13.226;2023-03-15T05:56:04;94466.16;;;-1.48;96.79
30110;BME280;14965;50.660;13.226;2023-03-15T05:58:30;94471.97;;;-1.46;96.84
30110;BME280;14965;50.660;13.226;2023-03-15T06:01:04;94475.44;;;-1.49;96.92
30110;BME280;14965;50.660;13.226;2023-03-15T06:03:33;94480.88;;;-1.49;96.50
30110;BME280;14965;50.660;13.226;2023-03-15T06:06:05;94474.69;;;-1.50;96.30
30110;BME280;14965;50.660;13.226;2023-03-15T06:08:52;94492.50;;;-1.45;96.18
30110;BME280;14965;50.660;13.226;2023-03-15T06:23:11;94500.25;;;-1.44;96.18
30110;BME280;14965;50.660;13.226;2023-03-15T06:25:29;94511.91;;;-1.40;96.29
30110;BME280;14965;50.660;13.226;2023-03-15T06:28:16;94501.50;;;-1.38;96.42
30110;BME280;14965;50.660;13.226;2023-03-15T06:31:34;94496.47;;;-1.36;96.48
30110;BME280;14965;50.660;13.226;2023-03-15T06:34:08;94504.25;;;-1.31;96.73
30110;BME280;14965;50.660;13.226;2023-03-15T06:36:36;94503.19;;;-1.22;96.48
30110;BME280;14965;50.660;13.226;2023-03-15T06:39:02;94506.72;;;-1.18;96.48
30110;BME280;14965;50.660;13.226;2023-03-15T06:41:50;94501.75;;;-1.13;96.65
30110;BME280;14965;50.660;13.226;2023-03-15T06:44:38;94505.56;;;-1.17;96.25
30110;BME280;14965;50.660;13.226;2023-03-15T06:47:04;94510.66;;;-1.12;96.58
30110;BME280;14965;50.660;13.226;2023-03-15T06:49:35;94512.63;;;-1.06;96.72
30110;BME280;14965;50.660;13.226;2023-03-15T06:52:05;94520.84;;;-0.98;96.67
30110;BME280;14965;50.660;13.226;2023-03-15T06:54:40;94521.28;;;-0.93;96.27
30110;BME280;14965;50.660;13.226;2023-03-15T06:57:08;94531.72;;;-0.95;95.86
30110;BME280;14965;50.660;13.226;2023-03-15T06:59:38;94530.19;;;-0.96;95.68
30110;BME280;14965;50.660;13.226;2023-03-15T07:02:08;94536.81;;;-0.90;95.44
30110;BME280;14965;50.660;13.226;2023-03-15T07:04:40;94539.97;;;-0.81;95.93
30110;BME280;14965;50.660;13.226;2023-03-15T07:07:08;94541.13;;;-0.82;95.06
30110;BME280;14965;50.660;13.226;2023-03-15T07:09:35;94540.78;;;-0.77;95.04
30110;BME280;14965;50.660;13.226;2023-03-15T07:12:11;94534.25;;;-0.72;95.38
30110;BME280;14965;50.660;13.226;2023-03-15T07:14:38;94542.41;;;-0.68;94.81
30110;BME280;14965;50.660;13.226;2023-03-15T07:17:10;94538.19;;;-0.66;94.75
30110;BME280;14965;50.660;13.226;2023-03-15T07:23:25;94533.94;;;-0.67;94.21
30110;BME280;14965;50.660;13.226;2023-03-15T07:25:51;94538.22;;;-0.62;94.24
30110;BME280;14965;50.660;13.226;2023-03-15T07:28:17;94541.75;;;-0.55;94.13
30110;BME280;14965;50.660;13.226;2023-03-15T07:30:53;94539.88;;;-0.47;93.98
30110;BME280;14965;50.660;13.226;2023-03-15T07:33:20;94537.59;;;-0.45;92.67
30110;BME280;14965;50.660;13.226;2023-03-15T07:35:45;94533.31;;;-0.42;92.32
30110;BME280;14965;50.660;13.226;2023-03-15T07:38:12;94534.53;;;-0.36;91.88
30110;BME280;14965;50.660;13.226;2023-03-15T07:40:37;94542.69;;;-0.36;92.41
30110;BME280;14965;50.660;13.226;2023-03-15T07:43:03;94539.63;;;-0.31;91.41
30110;BME280;14965;50.660;13.226;2023-03-15T07:45:29;94536.97;;;-0.24;91.30
30110;BME280;14965;50.660;13.226;2023-03-15T07:47:56;94546.66;;;-0.23;90.66
30110;BME280;14965;50.660;13.226;2023-03-15T07:50:22;94548.97;;;-0.21;91.04
30110;BME280;14965;50.660;13.226;2023-03-15T07:52:48;94553.31;;;-0.13;90.90
30110;BME280;14965;50.660;13.226;2023-03-15T07:55:14;94549.91;;;-0.03;91.85
30110;BME280;14965;50.660;13.226;2023-03-15T07:57:40;94552.19;;;-0.05;89.99
30110;BME280;14965;50.660;13.226;2023-03-15T08:00:08;94556.13;;;0.01;90.12
30110;BME280;14965;50.660;13.226;2023-03-15T08:02:34;94558.53;;;0.13;91.32
30110;BME280;14965;50.660;13.226;2023-03-15T08:05:02;94556.66;;;0.21;90.29
30110;BME280;14965;50.660;13.226;2023-03-15T08:07:28;94551.66;;;0.34;88.85
30110;BME280;14965;50.660;13.226;2023-03-15T08:09:54;94549.75;;;0.38;87.71
30110;BME280;14965;50.660;13.226;2023-03-15T08:12:20;94556.00;;;0.49;87.88
30110;BME280;14965;50.660;13.226;2023-03-15T08:14:45;94563.38;;;0.52;85.35
30110;BME280;14965;50.660;13.226;2023-03-15T08:17:11;94563.44;;;0.66;85.09
30110;BME280;14965;50.660;13.226;2023-03-15T08:19:38;94562.34;;;0.85;86.34
30110;BME280;14965;50.660;13.226;2023-03-15T08:22:06;94560.44;;;1.00;84.79
30110;BME280;14965;50.660;13.226;2023-03-15T08:24:32;94564.72;;;1.08;84.11
30110;BME280;14965;50.660;13.226;2023-03-15T08:26:58;94570.59;;;1.14;83.72
30110;BME280;14965;50.660;13.226;2023-03-15T08:29:24;94572.16;;;1.29;84.02
30110;BME280;14965;50.660;13.226;2023-03-15T08:31:50;94574.88;;;1.33;83.19
30110;BME280;14965;50.660;13.226;2023-03-15T08:34:16;94585.34;;;1.09;85.46
30110;BME280;14965;50.660;13.226;2023-03-15T08:36:42;94598.03;;;0.73;88.78
30110;BME280;14965;50.660;13.226;2023-03-15T08:39:09;94608.34;;;0.46;91.93
30110;BME280;14965;50.660;13.226;2023-03-15T08:41:37;94600.88;;;0.29;92.36
30110;BME280;14965;50.660;13.226;2023-03-15T08:44:03;94601.00;;;0.46;93.83
30110;BME280;14965;50.660;13.226;2023-03-15T08:46:29;94605.66;;;0.49;94.54
30110;BME280;14965;50.660;13.226;2023-03-15T08:48:55;94616.53;;;0.49;94.71
30110;BME280;14965;50.660;13.226;2023-03-15T08:51:21;94615.81;;;0.56;95.70
30110;BME280;14965;50.660;13.226;2023-03-15T08:53:47;94617.03;;;0.69;96.27
30110;BME280;14965;50.660;13.226;2023-03-15T08:56:14;94620.56;;;0.77;95.50
30110;BME280;14965;50.660;13.226;2023-03-15T08:58:40;94611.69;;;0.84;96.47
30110;BME280;14965;50.660;13.226;2023-03-15T09:01:06;94612.81;;;0.83;95.86
30110;BME280;14965;50.660;13.226;2023-03-15T09:03:32;94616.69;;;0.82;95.84
30110;BME280;14965;50.660;13.226;2023-03-15T09:05:59;94607.34;;;0.79;95.26
30110;BME280;14965;50.660;13.226;2023-03-15T09:08:25;94613.59;;;0.83;96.62
30110;BME280;14965;50.660;13.226;2023-03-15T09:10:53;94619.81;;;0.84;96.44
30110;BME280;14965;50.660;13.226;2023-03-15T09:13:22;94626.03;;;0.88;97.24
30110;BME280;14965;50.660;13.226;2023-03-15T09:15:48;94630.72;;;0.91;97.26
30110;BME280;14965;50.660;13.226;2023-03-15T09:18:17;94633.75;;;0.79;96.62
30110;BME280;14965;50.660;13.226;2023-03-15T09:20:46;94637.25;;;0.79;97.52
30110;BME280;14965;50.660;13.226;2023-03-15T09:23:22;94640.38;;;0.78;97.67
30110;BME280;14965;50.660;13.226;2023-03-15T09:25:50;94634.84;;;0.60;97.99
30110;BME280;14965;50.660;13.226;2023-03-15T09:28:19;94637.13;;;0.51;98.75
30110;BME280;14965;50.660;13.226;2023-03-15T09:30:48;94647.59;;;0.48;99.90
30110;BME280;14965;50.660;13.226;2023-03-15T09:33:33;94639.03;;;0.50;100.00
30110;BME280;14965;50.660;13.226;2023-03-15T09:36:01;94641.75;;;0.50;100.00
30110;BME280;14965;50.660;13.226;2023-03-15T09:38:27;94647.63;;;0.52;100.00
30110;BME280;14965;50.660;13.226;2023-03-15T09:41:20;94648.44;;;0.60;100.00
30110;BME280;14965;50.660;13.226;2023-03-15T09:44:50;94651.53;;;0.62;100.00
30110;BME280;14965;50.660;13.226;2023-03-15T09:47:54;94657.75;;;0.62;100.00
30110;BME280;14965;50.660;13.226;2023-03-15T09:50:33;94660.44;;;0.55;100.00
30110;BME280;14965;50.660;13.226;2023-03-15T09:53:04;94660.44;;;0.55;100.00
30110;BME280;14965;50.660;13.226;2023-03-15T09:55:41;94667.88;;;0.65;100.00
30110;BME280;14965;50.660;13.226;2023-03-15T09:58:13;94660.16;;;0.78;100.00
30110;BME280;14965;50.660;13.226;2023-03-15T10:00:48;94666.47;;;1.00;100.00
30110;BME280;14965;50.660;13.226;2023-03-15T10:03:23;94669.28;;;1.14;99.43
30110;BME280;14965;50.660;13.226;2023-03-15T10:05:57;94670.44;;;1.17;99.66
30110;BME280;14965;50.660;13.226;2023-03-15T10:08:27;94665.06;;;1.28;98.86
30110;BME280;14965;50.660;13.226;2023-03-15T10:11:05;94657.28;;;1.37;99.40
30110;BME280;14965;50.660;13.226;2023-03-15T10:13:56;94669.72;;;1.38;98.37
30110;BME280;14965;50.660;13.226;2023-03-15T10:16:38;94680.63;;;1.38;97.76
30110;BME280;14965;50.660;13.226;2023-03-15T10:19:28;94664.28;;;1.31;98.40
30110;BME280;14965;50.660;13.226;2023-03-15T10:22:03;94669.38;;;1.43;97.70
30110;BME280;14965;50.660;13.226;2023-03-15T10:24:42;94666.25;;;1.44;96.00
30110;BME280;14965;50.660;13.226;2023-03-15T10:27:20;94660.44;;;1.46;96.66
30110;BME280;14965;50.660;13.226;2023-03-15T10:30:18;94662.00;;;1.54;95.88
30110;BME280;14965;50.660;13.226;2023-03-15T10:32:55;94667.09;;;1.66;95.56
30110;BME280;14965;50.660;13.226;2023-03-15T10:35:24;94665.94;;;1.64;93.20
30110;BME280;14965;50.660;13.226;2023-03-15T10:41:49;94666.75;;;1.86;93.54
30110;BME280;14965;50.660;13.226;2023-03-15T10:44:26;94676.84;;;1.82;92.97
30110;BME280;14965;50.660;13.226;2023-03-15T10:47:18;94658.16;;;1.87;92.88
30110;BME280;14965;50.660;13.226;2023-03-15T10:49:46;94663.59;;;1.84;93.20
30110;BME280;14965;50.660;13.226;2023-03-15T10:52:32;94674.13;;;1.82;93.56
30110;BME280;14965;50.660;13.226;2023-03-15T10:55:01;94673.72;;;1.80;93.36
30110;BME280;14965;50.660;13.226;2023-03-15T10:57:40;94672.19;;;1.71;92.19
30110;BME280;14965;50.660;13.226;2023-03-15T11:00:53;94668.66;;;1.64;92.50
30110;BME280;14965;50.660;13.226;2023-03-15T11:03:34;94681.47;;;1.67;93.08
30110;BME280;14965;50.660;13.226;2023-03-15T11:06:20;94670.59;;;1.74;93.69
30110;BME280;14965;50.660;13.226;2023-03-15T11:08:46;94673.69;;;1.62;90.54
30110;BME280;14965;50.660;13.226;2023-03-15T11:11:12;94674.44;;;1.44;89.49
30110;BME280;14965;50.660;13.226;2023-03-15T11:16:59;94677.94;;;1.45;91.87
30110;BME280;14965;50.660;13.226;2023-03-15T11:19:45;94683.75;;;1.43;92.07
30110;BME280;14965;50.660;13.226;2023-03-15T11:22:18;94684.59;;;1.65;92.73
30110;BME280;14965;50.660;13.226;2023-03-15T11:24:46;94671.38;;;1.71;91.17
30110;BME280;14965;50.660;13.226;2023-03-15T11:27:32;94677.22;;;1.87;92.09
30110;BME280;14965;50.660;13.226;2023-03-15T11:30:01;94674.53;;;2.05;90.61
30110;BME280;14965;50.660;13.226;2023-03-15T11:32:30;94670.66;;;2.28;91.14
30110;BME280;14965;50.660;13.226;2023-03-15T11:35:37;94670.63;;;2.45;90.15
30110;BME280;14965;50.660;13.226;2023-03-15T11:38:16;94670.25;;;2.40;88.14
30110;BME280;14965;50.660;13.226;2023-03-15T11:40:57;94669.09;;;2.02;88.20
30110;BME280;14965;50.660;13.226;2023-03-15T11:43:28;94680.72;;;1.77;88.21
30110;BME280;14965;50.660;13.226;2023-03-15T11:45:59;94686.94;;;1.78;90.08
30110;BME280;14965;50.660;13.226;2023-03-15T11:48:33;94676.06;;;1.81;90.99
30110;BME280;14965;50.660;13.226;2023-03-15T11:51:01;94673.34;;;1.95;91.31
30110;BME280;14965;50.660;13.226;2023-03-15T11:57:54;94672.97;;;2.43;90.32
30110;BME280;14965;50.660;13.226;2023-03-15T12:00:52;94668.28;;;2.58;90.54
30110;BME280;14965;50.660;13.226;2023-03-15T12:03:35;94663.59;;;2.69;89.45
30110;BME280;14965;50.660;13.226;2023-03-15T12:06:40;94655.75;;;2.93;89.49
30110;BME280;14965;50.660;13.226;2023-03-15T12:09:53;94662.41;;;2.74;86.15
30110;BME280;14965;50.660;13.226;2023-03-15T12:12:58;94659.31;;;2.61;86.40
30110;BME280;14965;50.660;13.226;2023-03-15T12:16:27;94657.00;;;2.60;87.58
30110;BME280;14965;50.660;13.226;2023-03-15T12:18:56;94663.19;;;2.67;87.44
30110;BME280;14965;50.660;13.226;2023-03-15T12:21:38;94666.34;;;2.55;86.01
30110;BME280;14965;50.660;13.226;2023-03-15T12:24:20;94664.41;;;2.41;87.86
30110;BME280;14965;50.660;13.226;2023-03-15T12:27:02;94662.84;;;2.33;88.41
30110;BME280;14965;50.660;13.226;2023-03-15T12:29:59;94663.22;;;2.46;89.71
30110;BME280;14965;50.660;13.226;2023-03-15T12:32:28;94667.50;;;2.72;91.24
30110;BME280;14965;50.660;13.226;2023-03-15T12:34:56;94674.53;;;2.44;88.47
30110;BME280;14965;50.660;13.226;2023-03-15T12:37:30;94673.75;;;2.37;89.65
30110;BME280;14965;50.660;13.226;2023-03-15T12:43:38;94671.41;;;2.57;89.65
30110;BME280;14965;50.660;13.226;2023-03-15T12:46:06;94670.22;;;2.61;89.32
30110;BME280;14965;50.660;13.226;2023-03-15T12:48:32;94669.06;;;2.62;88.00
30110;BME280;14965;50.660;13.226;2023-03-15T12:51:09;94671.38;;;2.78;87.67
30110;BME280;14965;50.660;13.226;2023-03-15T12:53:48;94663.53;;;2.91;87.98
30110;BME280;14965;50.660;13.226;2023-03-15T12:56:43;94663.94;;;2.89;84.58
30110;BME280;14965;50.660;13.226;2023-03-15T12:59:36;94663.53;;;2.98;84.32
30110;BME280;14965;50.660;13.226;2023-03-15T13:02:33;94663.47;;;3.16;83.64
30110;BME280;14965;50.660;13.226;2023-03-15T13:05:12;94660.28;;;3.32;85.66
30110;BME280;14965;50.660;13.226;2023-03-15T13:07:57;94659.44;;;3.38;82.48
30110;BME280;14965;50.660;13.226;2023-03-15T13:10:38;94662.56;;;3.44;82.16
30110;BME280;14965;50.660;13.226;2023-03-15T13:13:32;94662.13;;;3.53;79.79
30110;BME280;14965;50.660;13.226;2023-03-15T13:16:18;94662.47;;;3.58;76.48
30110;BME280;14965;50.660;13.226;2023-03-15T13:18:58;94672.66;;;3.54;78.95
30110;BME280;14965;50.660;13.226;2023-03-15T13:21:30;94671.47;;;3.55;80.10
30110;BME280;14965;50.660;13.226;2023-03-15T13:23:58;94675.06;;;3.38;79.41
30110;BME280;14965;50.660;13.226;2023-03-15T13:26:40;94683.75;;;3.08;80.15
30110;BME280;14965;50.660;13.226;2023-03-15T13:29:13;94674.81;;;2.96;82.57
30110;BME280;14965;50.660;13.226;2023-03-15T13:31:40;94678.78;;;2.78;82.53
30110;BME280;14965;50.660;13.226;2023-03-15T13:34:14;94676.81;;;2.71;83.00
30110;BME280;14965;50.660;13.226;2023-03-15T13:36:44;94688.91;;;2.63;83.66
30110;BME280;14965;50.660;13.226;2023-03-15T13:39:19;94697.13;;;2.23;86.77
30110;BME280;14965;50.660;13.226;2023-03-15T13:41:45;94705.66;;;2.11;88.73
30110;BME280;14965;50.660;13.226;2023-03-15T13:44:19;94714.22;;;2.06;89.22
30110;BME280;14965;50.660;13.226;2023-03-15T13:46:47;94732.88;;;1.86;90.04
30110;BME280;14965;50.660;13.226;2023-03-15T13:49:16;94728.91;;;1.62;91.70
30110;BME280;14965;50.660;13.226;2023-03-15T13:51:43;94737.75;;;1.34;92.24